Terminal Aerodrome Forecast
Issued by NWS Newport/Morehead City, NC

Home | Current Version | Previous Version | Graphics & Text | Print | Product List | Glossary On
Versions: 1 2 3 4 5 6 7 8 9 10 11 12 13 14 15 16 17 18 19 20
831
FTUS42 KMHX 042324
TAFEWN
TAF
KEWN 042324Z 0500/0524 VRB04KT P6SM SCT080
     FM050800 00000KT 3SM BR BKN006
     FM051300 VRB03KT P6SM BKN015
     FM051500 VRB05KT P6SM BKN035
     FM051700 VRB05KT 6SM -SHRA BKN040=

USA.gov is the U.S. government's official web portal to all federal, state and local government web resources and services.